< < Back
Terminal Aerodrome Forecast


Current Version              Previous Versions:   1  2  3  4  5  6  7  8  9  

Terminal Aerodrome Forecast

143
FTUS42 KMLB 292334
TAFDAB
TAF
KDAB 292334Z 3000/3024 08007KT P6SM VCSH FEW021 SCT035 BKN140
      TEMPO 3000/3002 VRB15G28KT 3SM SHRA BKN020 OVC050
     FM301200 13007KT P6SM SCT020 BKN035 BKN250
      TEMPO 3012/3015 3SM SHRA BKN020
     FM301500 11010KT P6SM SCT020 BKN035 BKN250
      TEMPO 3015/3018 3SM TSRA BKN025CB
     FM301800 08011KT P6SM VCTS BKN030CB OVC100=

Latest METAR

093
SAUS80 KWBC 292300 RRA
MTRDAB
METAR KDAB 292253Z 08007KT 10SM FEW021 SCT035 BKN140 BKN250 28/24 A3004
RMK AO2 SLP172 CB DSNT E-SE T02830239 $


USA.gov is the U.S. government's official web portal to all federal, state and local government web resources and services.